Time;durP1;ratioP1;P1;durP2;ratioP2;P2;SDS_P1;SDS_P2;PMS_P1;PMS_P2;Temp;Humidity;BMP_temperature;BMP_pressure;BME280_temperature;BME280_humidity;BME280_pressure;Samples;Min_cycle;Max_cycle;Signal;HPM_P1;HPM_P2
2020/12/17 06:44:41;;;;;;;11.47;6.00;;;;;;;;;;3819352;37;20055;-64
2020/12/17 06:47:08;;;;;;;12.23;6.37;;;;;;;;;;4371980;32;20165;-64
2020/12/17 06:49:34;;;;;;;10.20;4.95;;;;;;;;;;4383765;32;20538;-62
2020/12/17 06:52:06;;;;;;;;;;;;;;;;;;4387855;32;20082;-64
2020/12/17 06:54:33;;;;;;;10.07;5.72;;;;;;;;;;4368015;32;19989;-62
2020/12/17 06:57:10;;;;;;;12.48;6.22;;;;;;;;;;4366013;32;20058;-64
2020/12/17 06:59:39;;;;;;;12.27;5.90;;;;;;;;;;4391122;32;20468;-63
2020/12/17 07:02:05;;;;;;;16.10;7.00;;;;;;;;;;4378432;32;20069;-63
2020/12/17 07:04:41;;;;;;;;;;;;;;;;;;4393053;32;20176;-63
2020/12/17 07:07:10;;;;;;;10.57;6.10;;;;;;;;;;4385920;32;19969;-63
2020/12/17 07:09:36;;;;;;;12.77;6.18;;;;;;;;;;4389573;32;20472;-65
2020/12/17 07:12:01;;;;;;;;;;;;;;;;;;4363200;32;20145;-64
2020/12/17 07:14:27;;;;;;;13.73;6.97;;;;;;;;;;4391278;32;20041;-63
2020/12/17 07:16:55;;;;;;;12.27;6.25;;;;;;;;;;4395566;32;20492;-63
2020/12/17 07:19:44;;;;;;;10.15;5.87;;;;;;;;;;4383156;32;20073;-63
2020/12/17 07:22:12;;;;;;;12.07;5.85;;;;;;;;;;4370750;32;20441;-62
2020/12/17 07:24:42;;;;;;;10.00;5.55;;;;;;;;;;4386372;32;20062;-63
2020/12/17 07:28:56;;;;;;;10.77;5.70;;;;;;;;;;3820513;37;20091;-64
2020/12/17 07:31:24;;;;;;;9.27;5.60;;;;;;;;;;4401868;32;20221;-63
2020/12/17 07:33:50;;;;;;;9.85;5.60;;;;;;;;;;4377401;32;20150;-63
2020/12/17 07:36:16;;;;;;;11.05;5.90;;;;;;;;;;4398649;32;20136;-62
2020/12/17 07:38:42;;;;;;;10.45;5.72;;;;;;;;;;4383694;32;20504;-64
2020/12/17 07:41:25;;;;;;;12.15;5.62;;;;;;;;;;4392317;32;20240;-62
2020/12/17 07:43:51;;;;;;;10.07;5.22;;;;;;;;;;4403090;32;20134;-64
2020/12/17 07:46:33;;;;;;;9.18;5.37;;;;;;;;;;4395246;32;20150;-65
2020/12/17 07:49:02;;;;;;;9.63;5.10;;;;;;;;;;4406683;32;20061;-66
2020/12/17 07:51:31;;;;;;;8.23;4.55;;;;;;;;;;4407746;32;20082;-65
2020/12/17 07:53:57;;;;;;;10.13;5.30;;;;;;;;;;4389634;32;20557;-63
2020/12/17 07:56:23;;;;;;;11.32;5.75;;;;;;;;;;4384098;32;20105;-64
2020/12/17 07:58:49;;;;;;;11.48;6.18;;;;;;;;;;4389077;32;20504;-63
2020/12/17 08:01:15;;;;;;;9.32;4.90;;;;;;;;;;4384864;32;20066;-62
2020/12/17 08:03:50;;;;;;;10.07;4.72;;;;;;;;;;4390360;32;20539;-63
2020/12/17 08:06:20;;;;;;;13.62;5.65;;;;;;;;;;4386823;32;20177;-64
2020/12/17 08:08:47;;;;;;;10.82;5.72;;;;;;;;;;4389540;32;20165;-63
2020/12/17 08:11:12;;;;;;;6.40;3.95;;;;;;;;;;4375047;32;20078;-63
2020/12/17 08:13:38;;;;;;;9.05;4.97;;;;;;;;;;4374977;32;20081;-64
2020/12/17 08:16:04;;;;;;;9.60;5.18;;;;;;;;;;4388418;32;20129;-64
2020/12/17 08:18:34;;;;;;;8.60;5.32;;;;;;;;;;4403147;32;20576;-63
2020/12/17 08:21:05;;;;;;;9.38;5.45;;;;;;;;;;4383644;32;20058;-63
2020/12/17 08:23:32;;;;;;;10.80;4.90;;;;;;;;;;4395583;32;20158;-63
2020/12/17 08:26:01;;;;;;;8.00;4.53;;;;;;;;;;4377922;32;20066;-62
2020/12/17 08:28:37;;;;;;;9.98;5.00;;;;;;;;;;4395458;32;20065;-65
2020/12/17 08:31:07;;;;;;;;;;;;;;;;;;4389918;32;20077;-63
2020/12/17 08:33:34;;;;;;;9.18;4.62;;;;;;;;;;4397135;32;20435;-63
2020/12/17 08:36:01;;;;;;;9.60;5.45;;;;;;;;;;4372856;32;20156;-64
2020/12/17 08:38:27;;;;;;;9.52;5.07;;;;;;;;;;4373559;32;20086;-63
2020/12/17 08:40:53;;;;;;;9.32;5.60;;;;;;;;;;4374972;32;20102;-64
2020/12/17 08:43:19;;;;;;;8.07;4.78;;;;;;;;;;4371907;32;20281;-63
2020/12/17 08:47:41;;;;;;;9.25;5.25;;;;;;;;;;3660323;37;20121;-64
2020/12/17 08:50:08;;;;;;;10.32;5.43;;;;;;;;;;4313145;32;20087;-63
2020/12/17 08:52:34;;;;;;;9.20;4.75;;;;;;;;;;4356925;32;20075;-64
2020/12/17 08:55:07;;;;;;;9.00;5.32;;;;;;;;;;4356696;32;20087;-64
2020/12/17 08:57:32;;;;;;;9.68;4.87;;;;;;;;;;4357163;32;20065;-64
2020/12/17 08:59:58;;;;;;;8.95;5.12;;;;;;;;;;4356779;32;20168;-64
2020/12/17 09:02:27;;;;;;;7.55;5.03;;;;;;;;;;4354747;32;20516;-63
2020/12/17 09:05:02;;;;;;;11.48;5.70;;;;;;;;;;4348768;32;20142;-62
2020/12/17 09:07:30;;;;;;;8.75;5.53;;;;;;;;;;4353058;32;20083;-68
2020/12/17 09:10:13;;;;;;;10.07;5.43;;;;;;;;;;4344443;32;20070;-65
2020/12/17 09:12:38;;;;;;;9.73;5.25;;;;;;;;;;4344658;32;20140;-64
2020/12/17 09:15:09;;;;;;;12.37;6.00;;;;;;;;;;4353012;32;20075;-64
2020/12/17 09:17:35;;;;;;;9.27;5.90;;;;;;;;;;4355638;32;20086;-65
2020/12/17 09:20:01;;;;;;;9.60;5.97;;;;;;;;;;4355184;32;20779;-65
2020/12/17 09:22:35;;;;;;;10.00;5.80;;;;;;;;;;4356952;32;20085;-61
2020/12/17 09:25:01;;;;;;;9.18;5.55;;;;;;;;;;4358522;32;20827;-63
2020/12/17 09:27:28;;;;;;;9.18;5.40;;;;;;;;;;4357292;32;20086;-63
2020/12/17 09:30:06;;;;;;;9.00;5.12;;;;;;;;;;4354786;32;20509;-63
2020/12/17 09:32:32;;;;;;;9.90;5.60;;;;;;;;;;4350419;32;20075;-62
2020/12/17 09:35:12;;;;;;;12.35;5.50;;;;;;;;;;4339724;32;20110;-63
2020/12/17 09:37:41;;;;;;;9.95;5.78;;;;;;;;;;4343131;32;20148;-61
2020/12/17 09:40:20;;;;;;;9.25;5.57;;;;;;;;;;4355919;32;20070;-62
2020/12/17 09:42:46;;;;;;;9.50;5.82;;;;;;;;;;4349699;32;20501;-62
2020/12/17 09:45:19;;;;;;;9.20;5.50;;;;;;;;;;4355161;32;20079;-67
2020/12/17 09:47:45;;;;;;;9.93;4.28;;;;;;;;;;4345282;32;20082;-62
2020/12/17 09:50:15;;;;;;;9.60;5.80;;;;;;;;;;4352414;32;20525;-63
2020/12/17 09:52:41;;;;;;;10.73;5.87;;;;;;;;;;4339862;32;20109;-61
2020/12/17 09:55:08;;;;;;;9.73;5.53;;;;;;;;;;4349630;32;20152;-63
2020/12/17 09:57:38;;;;;;;9.57;5.70;;;;;;;;;;4348752;32;20098;-63
2020/12/17 10:00:05;;;;;;;8.80;5.20;;;;;;;;;;4342322;32;20607;-62
2020/12/17 10:02:31;;;;;;;7.93;5.35;;;;;;;;;;4346501;32;20142;-61
2020/12/17 10:04:57;;;;;;;10.68;5.20;;;;;;;;;;4339950;33;20149;-64
2020/12/17 10:07:32;;;;;;;;;;;;;;;;;;;;;
2020/12/17 10:10:03;;;;;;;9.40;5.10;;;;;;;;;;3830789;37;20086;-62
2020/12/17 10:12:30;;;;;;;10.32;6.28;;;;;;;;;;4404034;32;20500;-63
2020/12/17 10:14:56;;;;;;;8.88;6.10;;;;;;;;;;4389859;32;20077;-63
2020/12/17 10:17:21;;;;;;;10.40;6.07;;;;;;;;;;4404187;32;20069;-62
2020/12/17 10:19:47;;;;;;;10.65;6.12;;;;;;;;;;4389873;32;20081;-60
2020/12/17 10:22:13;;;;;;;12.60;5.85;;;;;;;;;;4377680;32;20083;-61
2020/12/17 10:24:39;;;;;;;10.32;5.65;;;;;;;;;;4404600;32;20081;-61
2020/12/17 10:27:04;;;;;;;11.93;6.37;;;;;;;;;;4389354;32;20081;-61
2020/12/17 10:29:30;;;;;;;10.90;7.00;;;;;;;;;;4375274;32;20166;-61
2020/12/17 10:31:56;;;;;;;10.43;6.15;;;;;;;;;;4375672;32;20093;-61
2020/12/17 10:34:23;;;;;;;9.93;6.43;;;;;;;;;;4377750;32;20251;-61
2020/12/17 10:36:48;;;;;;;10.70;6.20;;;;;;;;;;4381901;32;20072;-61
2020/12/17 10:39:14;;;;;;;9.65;6.00;;;;;;;;;;4376967;32;20153;-61
2020/12/17 10:41:40;;;;;;;9.98;6.25;;;;;;;;;;4375091;32;20089;-60
2020/12/17 10:44:06;;;;;;;10.70;6.50;;;;;;;;;;4376188;32;20511;-61
2020/12/17 10:46:32;;;;;;;10.73;6.57;;;;;;;;;;4373472;32;20488;-61
2020/12/17 10:48:59;;;;;;;11.95;6.82;;;;;;;;;;4374976;32;20240;-61
2020/12/17 10:51:26;;;;;;;10.57;6.53;;;;;;;;;;4362212;32;20097;-61
2020/12/17 10:53:52;;;;;;;11.12;6.47;;;;;;;;;;4387886;32;20156;-62
2020/12/17 10:56:18;;;;;;;11.70;6.55;;;;;;;;;;4373987;32;20102;-62
2020/12/17 10:58:44;;;;;;;10.10;6.25;;;;;;;;;;4395240;32;20280;-62
2020/12/17 11:01:09;;;;;;;12.32;7.50;;;;;;;;;;4371471;32;20085;-61
2020/12/17 11:03:35;;;;;;;10.25;7.00;;;;;;;;;;4368548;32;20449;-61
2020/12/17 11:06:01;;;;;;;10.05;6.30;;;;;;;;;;4362660;32;20074;-63
2020/12/17 11:08:27;;;;;;;10.93;6.70;;;;;;;;;;4399918;32;20154;-64
2020/12/17 11:10:53;;;;;;;11.98;6.70;;;;;;;;;;4368192;32;20196;-60
2020/12/17 11:13:18;;;;;;;10.48;6.78;;;;;;;;;;4386401;32;20086;-62
2020/12/17 11:15:44;;;;;;;10.68;6.28;;;;;;;;;;4387060;32;20063;-63
2020/12/17 11:18:10;;;;;;;10.63;6.03;;;;;;;;;;4372802;32;20161;-62
2020/12/17 11:20:36;;;;;;;9.55;5.90;;;;;;;;;;4364043;32;20073;-62
2020/12/17 11:23:03;;;;;;;8.98;6.30;;;;;;;;;;4376799;32;20150;-63
2020/12/17 11:25:29;;;;;;;9.45;5.82;;;;;;;;;;4363085;32;20193;-62
2020/12/17 11:27:55;;;;;;;9.35;5.85;;;;;;;;;;4360923;32;20722;-62
2020/12/17 11:30:20;;;;;;;7.72;5.43;;;;;;;;;;4362777;32;20449;-63
2020/12/17 11:32:46;;;;;;;10.60;6.62;;;;;;;;;;4362682;32;20066;-61
2020/12/17 11:35:12;;;;;;;10.82;5.95;;;;;;;;;;4377568;32;20262;-61
2020/12/17 11:37:38;;;;;;;11.20;6.85;;;;;;;;;;4357329;32;20162;-61
2020/12/17 11:40:04;;;;;;;11.02;6.07;;;;;;;;;;4351458;32;20526;-63
2020/12/17 11:42:29;;;;;;;8.60;5.25;;;;;;;;;;4360154;32;20086;-63
2020/12/17 11:44:55;;;;;;;9.00;4.90;;;;;;;;;;4345852;32;20112;-64
2020/12/17 11:47:22;;;;;;;8.27;5.37;;;;;;;;;;4346257;32;20082;-64
2020/12/17 11:49:47;;;;;;;11.48;5.85;;;;;;;;;;4325995;32;20456;-63
2020/12/17 11:52:16;;;;;;;10.00;6.07;;;;;;;;;;4363335;32;20145;-62
2020/12/17 11:54:42;;;;;;;9.90;5.93;;;;;;;;;;4373903;32;20093;-63
2020/12/17 11:57:07;;;;;;;11.40;5.70;;;;;;;;;;4371216;32;20075;-62
2020/12/17 11:59:34;;;;;;;10.05;5.85;;;;;;;;;;4377779;32;20498;-64
2020/12/17 12:02:00;;;;;;;8.95;5.28;;;;;;;;;;4360321;32;20105;-63
2020/12/17 12:04:26;;;;;;;8.90;5.75;;;;;;;;;;4363218;32;20079;-64
2020/12/17 12:06:53;;;;;;;10.85;5.85;;;;;;;;;;4357854;32;20074;-63
2020/12/17 12:09:19;;;;;;;9.85;4.80;;;;;;;;;;4362359;32;20076;-63
2020/12/17 12:11:52;;;;;;;8.07;5.05;;;;;;;;;;4372950;32;20068;-64
2020/12/17 12:14:18;;;;;;;8.25;4.97;;;;;;;;;;4362669;32;20086;-63
2020/12/17 12:16:44;;;;;;;10.63;6.50;;;;;;;;;;4360211;32;20163;-64
2020/12/17 12:19:10;;;;;;;9.63;5.40;;;;;;;;;;4353834;32;20108;-64
2020/12/17 12:21:36;;;;;;;10.00;5.90;;;;;;;;;;4379101;32;20082;-62
2020/12/17 12:24:01;;;;;;;10.40;5.45;;;;;;;;;;4348629;32;20112;-64
2020/12/17 12:26:27;;;;;;;10.00;5.90;;;;;;;;;;4333888;32;20084;-62
2020/12/17 12:28:53;;;;;;;9.65;5.82;;;;;;;;;;4350728;32;20082;-64
2020/12/17 12:31:18;;;;;;;10.15;6.05;;;;;;;;;;4337691;32;20088;-63
2020/12/17 12:33:44;;;;;;;10.05;5.93;;;;;;;;;;4351401;32;20093;-64
2020/12/17 12:36:12;;;;;;;8.40;5.60;;;;;;;;;;4373187;32;20086;-62
2020/12/17 12:38:39;;;;;;;9.63;5.72;;;;;;;;;;4351207;32;20076;-63
2020/12/17 12:41:05;;;;;;;9.98;6.03;;;;;;;;;;4350222;32;20077;-66
2020/12/17 12:43:31;;;;;;;9.73;5.82;;;;;;;;;;4363353;32;20523;-66
2020/12/17 12:45:57;;;;;;;9.63;5.65;;;;;;;;;;4362464;32;20159;-64
2020/12/17 12:48:26;;;;;;;9.88;5.10;;;;;;;;;;4376620;32;20073;-64
2020/12/17 12:50:52;;;;;;;9.20;5.72;;;;;;;;;;4347198;32;20154;-64
2020/12/17 12:53:18;;;;;;;9.95;5.90;;;;;;;;;;4376549;32;20452;-63
2020/12/17 12:55:47;;;;;;;8.95;5.15;;;;;;;;;;4350442;32;20082;-65
2020/12/17 12:58:14;;;;;;;8.75;5.72;;;;;;;;;;4362658;32;20081;-65
2020/12/17 13:00:39;;;;;;;8.05;5.60;;;;;;;;;;4371236;32;20070;-66
2020/12/17 13:03:05;;;;;;;9.68;5.45;;;;;;;;;;4364674;32;20169;-65
2020/12/17 13:05:37;;;;;;;8.60;5.40;;;;;;;;;;4373005;32;20507;-63
2020/12/17 13:08:03;;;;;;;9.68;5.95;;;;;;;;;;4319569;32;21691;-67
2020/12/17 13:10:29;;;;;;;10.25;5.40;;;;;;;;;;4265321;33;20079;-66
2020/12/17 13:12:55;;;;;;;12.18;5.87;;;;;;;;;;4329833;33;20077;-64
2020/12/17 13:15:21;;;;;;;9.75;5.72;;;;;;;;;;4342538;32;20501;-65
2020/12/17 13:17:47;;;;;;;9.68;6.60;;;;;;;;;;4341713;32;20090;-63
2020/12/17 13:20:13;;;;;;;10.65;6.43;;;;;;;;;;4341313;32;20162;-66
2020/12/17 13:22:39;;;;;;;11.12;5.32;;;;;;;;;;4347147;32;20110;-65
2020/12/17 13:25:05;;;;;;;10.70;5.28;;;;;;;;;;4344333;33;20071;-69
2020/12/17 13:27:30;;;;;;;7.90;5.32;;;;;;;;;;4329371;33;20171;-68
2020/12/17 13:29:56;;;;;;;9.50;5.68;;;;;;;;;;4332916;33;20164;-63
2020/12/17 13:32:22;;;;;;;8.35;5.60;;;;;;;;;;4343527;32;20207;-63
2020/12/17 13:34:48;;;;;;;9.27;5.10;;;;;;;;;;4342945;32;20580;-64
2020/12/17 13:37:15;;;;;;;9.13;5.65;;;;;;;;;;4343934;32;20094;-64
2020/12/17 13:39:41;;;;;;;9.38;5.35;;;;;;;;;;4343743;33;20077;-64
2020/12/17 13:42:07;;;;;;;9.82;5.95;;;;;;;;;;4331772;33;20066;-63
2020/12/17 13:44:32;;;;;;;8.77;5.43;;;;;;;;;;4344344;32;20540;-64
2020/12/17 13:46:58;;;;;;;9.75;5.37;;;;;;;;;;4345685;32;20081;-65
2020/12/17 13:49:24;;;;;;;9.88;5.07;;;;;;;;;;4343302;32;20203;-64
2020/12/17 13:51:50;;;;;;;9.43;5.60;;;;;;;;;;4332634;33;20098;-63
2020/12/17 13:54:16;;;;;;;8.45;5.15;;;;;;;;;;4342259;32;20098;-64
2020/12/17 13:56:42;;;;;;;9.23;6.35;;;;;;;;;;4338200;33;20525;-62
2020/12/17 13:59:08;;;;;;;8.23;5.60;;;;;;;;;;4340956;32;20081;-64
2020/12/17 14:01:35;;;;;;;9.45;5.82;;;;;;;;;;4347036;32;20109;-65
2020/12/17 14:04:00;;;;;;;9.63;6.22;;;;;;;;;;4344288;32;20099;-63
2020/12/17 14:06:26;;;;;;;11.93;6.03;;;;;;;;;;4342152;33;20163;-63
2020/12/17 14:08:53;;;;;;;9.18;5.55;;;;;;;;;;4328467;33;20086;-63
2020/12/17 14:11:20;;;;;;;10.45;6.57;;;;;;;;;;4340772;33;20087;-61
2020/12/17 14:13:46;;;;;;;11.12;6.75;;;;;;;;;;4329644;33;20094;-63
2020/12/17 14:16:12;;;;;;;10.18;7.35;;;;;;;;;;4342097;33;20087;-63
2020/12/17 14:18:41;;;;;;;9.70;6.18;;;;;;;;;;4338488;33;20079;-64
2020/12/17 14:21:07;;;;;;;9.90;6.72;;;;;;;;;;4344287;33;20089;-64
2020/12/17 14:23:33;;;;;;;11.20;7.05;;;;;;;;;;4332879;33;20502;-64
2020/12/17 14:25:58;;;;;;;11.52;6.93;;;;;;;;;;4341174;33;20155;-64
2020/12/17 14:28:24;;;;;;;10.43;6.43;;;;;;;;;;4341114;33;20075;-64
2020/12/17 14:30:50;;;;;;;9.23;6.35;;;;;;;;;;4341241;33;20075;-63
2020/12/17 14:33:16;;;;;;;9.48;6.32;;;;;;;;;;4331498;33;20087;-62
2020/12/17 14:35:41;;;;;;;10.25;6.28;;;;;;;;;;4329931;33;20087;-63
2020/12/17 14:38:07;;;;;;;8.55;6.30;;;;;;;;;;4337967;33;20073;-62
2020/12/17 14:40:33;;;;;;;8.80;5.60;;;;;;;;;;4342121;33;20075;-62
2020/12/17 14:42:59;;;;;;;10.13;6.22;;;;;;;;;;4342964;33;20075;-63
2020/12/17 14:45:24;;;;;;;10.20;5.82;;;;;;;;;;4345550;32;20587;-63
2020/12/17 14:47:50;;;;;;;11.95;6.18;;;;;;;;;;4344795;33;20077;-63
2020/12/17 14:50:16;;;;;;;10.10;6.68;;;;;;;;;;4343778;33;20506;-63
2020/12/17 14:52:42;;;;;;;9.13;6.10;;;;;;;;;;4349329;32;20159;-63
2020/12/17 14:55:08;;;;;;;10.40;5.90;;;;;;;;;;4346226;32;20094;-62
2020/12/17 14:57:34;;;;;;;12.60;6.43;;;;;;;;;;4348420;32;20551;-62
2020/12/17 14:59:59;;;;;;;9.88;7.50;;;;;;;;;;4344249;33;20537;-63
2020/12/17 15:02:25;;;;;;;11.12;6.50;;;;;;;;;;4341466;33;20191;-63
2020/12/17 15:04:52;;;;;;;11.07;6.35;;;;;;;;;;4349038;32;20071;-63
2020/12/17 15:07:17;;;;;;;10.82;6.78;;;;;;;;;;4349923;32;20510;-64
2020/12/17 15:09:43;;;;;;;9.73;6.57;;;;;;;;;;4347308;32;20071;-63
2020/12/17 15:12:09;;;;;;;13.15;6.87;;;;;;;;;;4332622;32;20091;-63
2020/12/17 15:14:35;;;;;;;11.93;7.47;;;;;;;;;;4346646;33;20079;-62
2020/12/17 15:17:01;;;;;;;11.05;6.53;;;;;;;;;;4343181;32;20445;-62
2020/12/17 15:19:26;;;;;;;10.73;6.43;;;;;;;;;;4331987;33;20087;-61
2020/12/17 15:21:53;;;;;;;13.23;6.80;;;;;;;;;;4333983;33;20178;-62
2020/12/17 15:24:19;;;;;;;13.57;6.95;;;;;;;;;;4333859;33;20086;-61
2020/12/17 15:26:45;;;;;;;11.85;7.18;;;;;;;;;;4333663;33;20090;-61
2020/12/17 15:29:10;;;;;;;11.98;7.07;;;;;;;;;;4334698;33;20071;-62
2020/12/17 15:31:36;;;;;;;13.38;7.50;;;;;;;;;;4358578;32;20180;-61
2020/12/17 15:34:02;;;;;;;9.20;6.82;;;;;;;;;;4340312;33;20170;-61
2020/12/17 15:36:27;;;;;;;12.20;7.05;;;;;;;;;;4351795;33;20071;-62
2020/12/17 15:38:53;;;;;;;13.68;7.30;;;;;;;;;;4348116;32;20154;-61
2020/12/17 15:41:19;;;;;;;11.85;7.57;;;;;;;;;;4348273;32;20082;-62
2020/12/17 15:43:45;;;;;;;10.82;6.65;;;;;;;;;;4347031;33;20138;-62
2020/12/17 15:46:11;;;;;;;13.57;7.53;;;;;;;;;;4348311;32;20083;-62
2020/12/17 15:48:37;;;;;;;11.93;8.32;;;;;;;;;;4348653;32;20508;-62
2020/12/17 15:51:07;;;;;;;11.95;7.25;;;;;;;;;;4347125;33;20070;-61
2020/12/17 15:53:33;;;;;;;12.02;7.15;;;;;;;;;;4346889;33;20074;-62
2020/12/17 15:55:59;;;;;;;13.00;8.38;;;;;;;;;;4348242;32;20074;-61
2020/12/17 15:58:25;;;;;;;14.00;8.27;;;;;;;;;;4334487;33;20465;-61
2020/12/17 16:00:51;;;;;;;13.90;7.53;;;;;;;;;;4348101;32;20581;-62
2020/12/17 16:03:18;;;;;;;16.87;8.57;;;;;;;;;;4334797;33;20099;-60
2020/12/17 16:05:43;;;;;;;13.62;8.38;;;;;;;;;;4322591;32;20554;-61
2020/12/17 16:08:09;;;;;;;;;;;;;;;;;;4346938;33;20162;-62
2020/12/17 16:10:36;;;;;;;13.20;7.50;;;;;;;;;;4347790;33;19977;-62
2020/12/17 16:13:02;;;;;;;13.73;8.38;;;;;;;;;;4348666;33;20094;-61
2020/12/17 16:15:28;;;;;;;12.35;7.47;;;;;;;;;;4349063;32;20594;-62
2020/12/17 16:17:53;;;;;;;14.77;9.02;;;;;;;;;;4346409;33;20086;-62
2020/12/17 16:20:19;;;;;;;;;;;;;;;;;;4346585;33;20079;-62
2020/12/17 16:22:44;;;;;;;14.43;8.40;;;;;;;;;;4347956;32;20046;-61
2020/12/17 16:25:10;;;;;;;12.68;8.90;;;;;;;;;;4346076;32;20089;-61
2020/12/17 16:27:36;;;;;;;13.93;7.93;;;;;;;;;;4346326;33;20167;-61
2020/12/17 16:30:04;;;;;;;13.88;8.10;;;;;;;;;;4331479;33;20159;-61
2020/12/17 16:32:30;;;;;;;12.95;8.90;;;;;;;;;;4331483;33;20461;-62
2020/12/17 16:34:55;;;;;;;13.85;8.43;;;;;;;;;;4331756;33;20079;-62
2020/12/17 16:37:21;;;;;;;13.90;8.02;;;;;;;;;;4319012;33;20596;-62
2020/12/17 16:39:47;;;;;;;;;;;;;;;;;;4333679;33;20071;-62
2020/12/17 16:42:13;;;;;;;12.13;8.13;;;;;;;;;;4331380;33;20053;-60
2020/12/17 16:44:39;;;;;;;14.18;8.15;;;;;;;;;;4331447;33;20075;-62
2020/12/17 16:47:05;;;;;;;;;;;;;;;;;;4331326;33;20082;-62
2020/12/17 16:49:31;;;;;;;13.27;7.75;;;;;;;;;;4332922;33;19969;-62
2020/12/17 16:51:56;;;;;;;;;;;;;;;;;;4333076;33;20075;-61
2020/12/17 16:54:24;;;;;;;13.52;8.60;;;;;;;;;;4332969;33;20049;-60
2020/12/17 16:56:57;;;;;;;16.62;9.18;;;;;;;;;;4333412;33;20107;-62
2020/12/17 16:59:32;;;;;;;13.23;8.52;;;;;;;;;;4331272;33;20453;-62
2020/12/17 17:02:05;;;;;;;14.18;8.93;;;;;;;;;;4337413;33;20086;-61
2020/12/17 17:04:31;;;;;;;15.48;8.70;;;;;;;;;;4346231;33;20087;-62
2020/12/17 17:06:58;;;;;;;14.98;8.43;;;;;;;;;;4345569;33;20079;-62
2020/12/17 17:09:24;;;;;;;14.30;9.48;;;;;;;;;;4347073;32;20441;-61
2020/12/17 17:11:49;;;;;;;;;;;;;;;;;;4347650;32;20090;-62
2020/12/17 17:14:15;;;;;;;15.25;8.40;;;;;;;;;;4347287;32;19980;-62
2020/12/17 17:16:41;;;;;;;;;;;;;;;;;;4346238;33;20146;-62
2020/12/17 17:19:07;;;;;;;14.15;8.45;;;;;;;;;;4345448;33;19985;-62
2020/12/17 17:21:33;;;;;;;13.40;8.65;;;;;;;;;;4345439;33;20070;-62
2020/12/17 17:23:59;;;;;;;;;;;;;;;;;;4345879;33;20099;-62
2020/12/17 17:26:25;;;;;;;12.35;8.18;;;;;;;;;;4346851;32;19981;-61
2020/12/17 17:28:51;;;;;;;19.83;8.98;;;;;;;;;;4345273;33;20152;-62
2020/12/17 17:31:17;;;;;;;13.00;8.73;;;;;;;;;;4332859;33;20543;-61
2020/12/17 17:33:42;;;;;;;;;;;;;;;;;;4321328;33;20081;-62
2020/12/17 17:36:08;;;;;;;12.95;8.52;;;;;;;;;;4347040;32;19974;-61
2020/12/17 17:38:35;;;;;;;14.93;9.23;;;;;;;;;;4347507;32;20090;-62
2020/12/17 17:41:01;;;;;;;12.35;7.80;;;;;;;;;;4346107;33;20590;-62
2020/12/17 17:43:27;;;;;;;;;;;;;;;;;;4345704;32;20091;-62
2020/12/17 17:45:52;;;;;;;15.23;8.38;;;;;;;;;;4345169;33;19967;-62
2020/12/17 17:48:19;;;;;;;13.45;7.90;;;;;;;;;;4345376;32;20082;-62
2020/12/17 17:50:44;;;;;;;14.07;7.82;;;;;;;;;;4345316;33;20097;-61
2020/12/17 17:53:10;;;;;;;;;;;;;;;;;;4357603;32;20078;-62
2020/12/17 17:55:36;;;;;;;13.65;8.60;;;;;;;;;;4346361;33;19992;-62
2020/12/17 17:58:02;;;;;;;13.45;7.57;;;;;;;;;;4346666;33;20083;-62
2020/12/17 18:00:27;;;;;;;;;;;;;;;;;;4333140;33;20075;-62
2020/12/17 18:02:54;;;;;;;12.73;7.93;;;;;;;;;;4344972;33;19993;-62
2020/12/17 18:05:20;;;;;;;13.02;7.53;;;;;;;;;;4344747;33;20093;-61
2020/12/17 18:07:48;;;;;;;;;;;;;;;;;;4332985;33;20079;-63
2020/12/17 18:10:17;;;;;;;12.68;7.95;;;;;;;;;;4346311;32;19966;-61
2020/12/17 18:12:43;;;;;;;12.27;8.05;;;;;;;;;;4345253;33;20070;-62
2020/12/17 18:15:09;;;;;;;;;;;;;;;;;;4345456;33;20071;-60
2020/12/17 18:17:35;;;;;;;13.18;7.68;;;;;;;;;;4345340;33;20043;-62
2020/12/17 18:20:00;;;;;;;;;;;;;;;;;;4333151;33;20090;-62
2020/12/17 18:22:26;;;;;;;12.95;8.45;;;;;;;;;;4346895;32;20068;-62
2020/12/17 18:24:52;;;;;;;;;;;;;;;;;;4345641;33;20142;-61
2020/12/17 18:27:17;;;;;;;10.75;7.07;;;;;;;;;;4345143;32;19985;-62
2020/12/17 18:29:43;;;;;;;;;;;;;;;;;;4345210;32;20535;-61
2020/12/17 18:32:08;;;;;;;12.73;7.78;;;;;;;;;;4349470;33;19973;-62
2020/12/17 18:34:34;;;;;;;11.60;8.27;;;;;;;;;;4347898;33;20513;-61
2020/12/17 18:37:00;;;;;;;;;;;;;;;;;;4349635;32;20073;-61
2020/12/17 18:39:26;;;;;;;11.73;7.43;;;;;;;;;;4359973;32;19994;-62
2020/12/17 18:41:53;;;;;;;11.75;7.60;;;;;;;;;;4348174;33;20063;-62
2020/12/17 18:44:22;;;;;;;12.65;7.28;;;;;;;;;;4349400;32;20078;-62
2020/12/17 18:46:47;;;;;;;11.57;7.30;;;;;;;;;;4349259;32;20077;-62
2020/12/17 18:49:14;;;;;;;13.48;7.05;;;;;;;;;;4347884;33;20094;-61
2020/12/17 18:51:40;;;;;;;12.63;7.35;;;;;;;;;;4349241;32;20067;-61
2020/12/17 18:54:05;;;;;;;11.57;7.45;;;;;;;;;;4335721;32;20101;-62
2020/12/17 18:56:31;;;;;;;12.18;7.45;;;;;;;;;;4349577;33;20102;-62
2020/12/17 18:58:57;;;;;;;;;;;;;;;;;;4349153;33;20074;-62
2020/12/17 19:01:23;;;;;;;12.73;7.50;;;;;;;;;;4351490;32;20056;-62
2020/12/17 19:03:48;;;;;;;11.95;7.70;;;;;;;;;;4348734;32;20559;-62
2020/12/17 19:06:14;;;;;;;11.02;7.55;;;;;;;;;;4347689;33;20089;-61
2020/12/17 19:08:40;;;;;;;11.77;6.78;;;;;;;;;;4348679;32;20172;-60
2020/12/17 19:11:06;;;;;;;11.15;7.32;;;;;;;;;;4347576;33;20087;-62
2020/12/17 19:13:32;;;;;;;13.07;7.75;;;;;;;;;;4347703;33;20066;-61
2020/12/17 19:15:57;;;;;;;12.63;7.70;;;;;;;;;;4348515;32;20162;-62
2020/12/17 19:18:23;;;;;;;10.68;7.05;;;;;;;;;;4348747;32;20125;-62
2020/12/17 19:20:49;;;;;;;11.68;7.05;;;;;;;;;;4348532;32;20469;-62
2020/12/17 19:23:15;;;;;;;11.38;7.05;;;;;;;;;;4348659;32;20521;-62
2020/12/17 19:25:41;;;;;;;11.43;6.55;;;;;;;;;;4347475;32;20069;-62
2020/12/17 19:28:06;;;;;;;11.55;6.68;;;;;;;;;;4346927;33;20082;-61
2020/12/17 19:30:32;;;;;;;;;;;;;;;;;;4348754;32;20090;-61
2020/12/17 19:32:58;;;;;;;12.45;7.10;;;;;;;;;;4348886;33;19998;-61
2020/12/17 19:35:23;;;;;;;;;;;;;;;;;;4347257;33;20075;-62
2020/12/17 19:37:49;;;;;;;11.43;6.97;;;;;;;;;;4348576;33;19989;-62
2020/12/17 19:40:15;;;;;;;11.00;6.80;;;;;;;;;;4347067;32;20090;-62
2020/12/17 19:42:40;;;;;;;;;;;;;;;;;;4334861;33;20090;-61
2020/12/17 19:45:08;;;;;;;11.25;6.90;;;;;;;;;;4348793;32;19994;-61
2020/12/17 19:47:33;;;;;;;11.23;6.97;;;;;;;;;;4346861;33;20171;-61
2020/12/17 19:49:59;;;;;;;12.65;6.90;;;;;;;;;;4348380;32;20173;-62
2020/12/17 19:52:25;;;;;;;12.13;6.95;;;;;;;;;;4348745;32;20082;-62
2020/12/17 19:54:51;;;;;;;11.00;7.10;;;;;;;;;;4334690;33;20063;-62
2020/12/17 19:57:17;;;;;;;12.35;7.70;;;;;;;;;;4348292;32;20082;-62
2020/12/17 19:59:43;;;;;;;11.95;7.50;;;;;;;;;;4334576;32;20087;-61
2020/12/17 20:02:09;;;;;;;11.10;6.70;;;;;;;;;;4336942;33;20110;-62
2020/12/17 20:04:35;;;;;;;10.88;7.62;;;;;;;;;;4348295;32;20082;-62
2020/12/17 20:07:01;;;;;;;14.18;7.57;;;;;;;;;;4347015;33;20063;-62
2020/12/17 20:09:27;;;;;;;9.90;6.43;;;;;;;;;;4348129;32;20175;-61
2020/12/17 20:11:53;;;;;;;13.13;7.22;;;;;;;;;;4348004;32;20442;-61
2020/12/17 20:14:19;;;;;;;12.43;6.95;;;;;;;;;;4346518;33;20588;-61
2020/12/17 20:16:45;;;;;;;11.15;7.15;;;;;;;;;;4348216;32;20098;-62
2020/12/17 20:19:12;;;;;;;11.82;7.37;;;;;;;;;;4346594;33;20086;-62
2020/12/17 20:21:37;;;;;;;10.88;6.82;;;;;;;;;;4334112;33;20143;-63
2020/12/17 20:24:03;;;;;;;10.32;7.00;;;;;;;;;;4348299;32;20162;-62
2020/12/17 20:26:29;;;;;;;11.70;7.95;;;;;;;;;;4346516;32;20094;-62
2020/12/17 20:28:55;;;;;;;11.98;7.55;;;;;;;;;;4334116;33;20102;-61
2020/12/17 20:31:21;;;;;;;12.40;7.25;;;;;;;;;;4347669;32;20089;-61
2020/12/17 20:33:47;;;;;;;11.73;8.68;;;;;;;;;;4358391;32;20601;-61
2020/12/17 20:36:20;;;;;;;12.88;7.53;;;;;;;;;;4346482;33;20101;-61
2020/12/17 20:38:46;;;;;;;11.45;7.32;;;;;;;;;;4334309;33;20074;-62
2020/12/17 20:41:20;;;;;;;14.52;7.65;;;;;;;;;;4346356;33;20458;-62
2020/12/17 20:43:46;;;;;;;14.32;8.50;;;;;;;;;;4347532;32;20516;-61
2020/12/17 20:46:12;;;;;;;13.35;8.07;;;;;;;;;;4347754;33;20082;-63
2020/12/17 20:48:38;;;;;;;11.45;7.70;;;;;;;;;;4347595;32;20062;-62
2020/12/17 20:51:04;;;;;;;12.07;7.18;;;;;;;;;;4347668;32;20082;-62
2020/12/17 20:53:30;;;;;;;9.85;6.90;;;;;;;;;;4347007;32;20432;-62
2020/12/17 20:55:55;;;;;;;;;;;;;;;;;;4358580;32;20079;-62
2020/12/17 20:58:21;;;;;;;11.52;7.32;;;;;;;;;;4347249;33;20034;-61
2020/12/17 21:00:47;;;;;;;14.60;7.87;;;;;;;;;;4358187;32;20088;-63
2020/12/17 21:03:13;;;;;;;11.82;6.97;;;;;;;;;;4345796;33;20083;-63
2020/12/17 21:05:39;;;;;;;13.48;7.47;;;;;;;;;;4346315;33;20094;-61
2020/12/17 21:08:05;;;;;;;12.90;7.65;;;;;;;;;;4320561;33;20469;-62
2020/12/17 21:10:32;;;;;;;13.62;8.25;;;;;;;;;;4347492;32;20074;-62
2020/12/17 21:12:59;;;;;;;12.05;7.00;;;;;;;;;;4333655;33;20113;-62
2020/12/17 21:15:25;;;;;;;10.85;7.18;;;;;;;;;;4345626;33;20081;-61
2020/12/17 21:17:51;;;;;;;13.23;7.87;;;;;;;;;;4345441;32;20059;-63
2020/12/17 21:20:17;;;;;;;10.68;6.93;;;;;;;;;;4347273;32;20074;-62
2020/12/17 21:22:42;;;;;;;11.48;7.32;;;;;;;;;;4346091;33;20133;-61
2020/12/17 21:25:08;;;;;;;12.13;7.85;;;;;;;;;;4346851;32;20070;-62
2020/12/17 21:27:37;;;;;;;11.75;7.25;;;;;;;;;;4345698;33;20098;-62